Time;durP1;ratioP1;P1;durP2;ratioP2;P2;SDS_P1;SDS_P2;PMS_P1;PMS_P2;Temp;Humidity;BMP_temperature;BMP_pressure;BME280_temperature;BME280_humidity;BME280_pressure;Samples;Min_cycle;Max_cycle;Signal;HPM_P1;HPM_P2
2021/12/07 00:01:43;;;;;;;71.72;27.55;;;;;;;;;;5026077;28;20049;-80
2021/12/07 00:04:13;;;;;;;72.55;28.13;;;;;;;;;;5012623;28;20125;-80
2021/12/07 00:06:40;;;;;;;86.25;30.90;;;;;;;;;;5036947;28;20040;-80
2021/12/07 00:09:07;;;;;;;100.30;35.13;;;;;;;;;;5040712;28;20033;-79
2021/12/07 00:11:34;;;;;;;81.50;32.88;;;;;;;;;;5031598;28;20055;-79
2021/12/07 00:14:10;;;;;;;85.15;29.60;;;;;;;;;;5012512;28;20716;-80
2021/12/07 00:16:37;;;;;;;78.55;30.15;;;;;;;;;;5002450;28;20048;-80
2021/12/07 00:19:08;;;;;;;76.38;29.13;;;;;;;;;;5038649;28;20038;-79
2021/12/07 00:21:35;;;;;;;76.50;28.55;;;;;;;;;;5007824;28;20116;-80
2021/12/07 00:24:02;;;;;;;71.38;25.40;;;;;;;;;;5041280;28;20026;-81
2021/12/07 00:26:29;;;;;;;79.60;24.63;;;;;;;;;;5011465;28;20037;-81
2021/12/07 00:29:02;;;;;;;59.50;22.38;;;;;;;;;;5040220;28;20087;-81
2021/12/07 00:31:37;;;;;;;69.95;24.65;;;;;;;;;;5031873;28;20038;-81
2021/12/07 00:34:23;;;;;;;66.90;22.52;;;;;;;;;;5022518;28;20558;-82
2021/12/07 00:36:50;;;;;;;66.45;24.63;;;;;;;;;;5038255;28;20041;-82
2021/12/07 00:39:25;;;;;;;91.85;35.17;;;;;;;;;;5045215;28;20048;-81
2021/12/07 00:41:57;;;;;;;110.10;45.08;;;;;;;;;;5010217;28;20481;-82
2021/12/07 00:44:25;;;;;;;93.68;43.50;;;;;;;;;;5025080;28;20057;-82
2021/12/07 00:47:15;;;;;;;79.00;30.83;;;;;;;;;;5027338;28;20030;-81
2021/12/07 00:49:49;;;;;;;68.68;28.45;;;;;;;;;;4982584;28;20572;-82
2021/12/07 00:52:15;;;;;;;78.13;29.42;;;;;;;;;;5025486;28;20061;-82
2021/12/07 00:54:41;;;;;;;68.22;24.60;;;;;;;;;;5039521;28;20030;-83
2021/12/07 00:57:20;;;;;;;62.13;22.80;;;;;;;;;;5044803;28;20037;-81
2021/12/07 00:59:47;;;;;;;70.00;25.20;;;;;;;;;;5031418;28;20456;-83
2021/12/07 01:02:13;;;;;;;64.70;24.48;;;;;;;;;;5031566;28;20396;-81
2021/12/07 01:04:49;;;;;;;63.08;24.15;;;;;;;;;;5025261;28;20084;-82
2021/12/07 01:07:33;;;;;;;67.07;25.17;;;;;;;;;;5020269;28;20040;-83
2021/12/07 01:26:51;;;;;;;63.03;24.52;;;;;;;;;;5037616;28;20114;-81
2021/12/07 01:29:20;;;;;;;90.53;29.15;;;;;;;;;;5046873;28;20052;-81
2021/12/07 01:32:08;;;;;;;77.05;28.27;;;;;;;;;;5025164;28;20108;-82
2021/12/07 01:39:58;;;;;;;66.38;27.58;;;;;;;;;;5026426;28;20033;-83
2021/12/07 02:01:46;;;;;;;64.38;24.27;;;;;;;;;;5024499;28;20045;-83
2021/12/07 02:04:12;;;;;;;65.57;22.30;;;;;;;;;;5013413;28;20042;-82
2021/12/07 02:06:46;;;;;;;63.60;22.42;;;;;;;;;;5025131;28;20063;-81
2021/12/07 02:09:13;;;;;;;67.40;24.60;;;;;;;;;;4995838;28;20045;-80
2021/12/07 02:11:58;;;;;;;64.10;22.35;;;;;;;;;;5011024;28;20066;-80
2021/12/07 02:14:25;;;;;;;57.38;21.52;;;;;;;;;;4995002;28;20034;-80
2021/12/07 02:16:53;;;;;;;70.13;27.58;;;;;;;;;;5003838;28;20046;-80
2021/12/07 02:19:20;;;;;;;81.32;29.80;;;;;;;;;;5034084;28;20413;-81
2021/12/07 02:22:00;;;;;;;84.03;32.78;;;;;;;;;;5023891;28;20030;-80
2021/12/07 02:24:27;;;;;;;77.97;32.83;;;;;;;;;;5015310;28;20042;-80
2021/12/07 02:26:54;;;;;;;101.38;38.35;;;;;;;;;;5011333;28;20034;-80
2021/12/07 02:29:22;;;;;;;104.15;39.40;;;;;;;;;;5019643;28;20034;-80
2021/12/07 02:31:49;;;;;;;112.93;40.58;;;;;;;;;;5005487;28;20038;-80
2021/12/07 02:34:15;;;;;;;90.15;39.97;;;;;;;;;;5020828;28;20071;-80
2021/12/07 02:36:42;;;;;;;96.47;40.85;;;;;;;;;;5005679;28;20029;-80
2021/12/07 02:39:11;;;;;;;112.65;42.92;;;;;;;;;;5006141;28;20038;-80
2021/12/07 02:41:38;;;;;;;107.90;42.08;;;;;;;;;;5010279;28;20481;-80
2021/12/07 02:44:07;;;;;;;116.38;43.22;;;;;;;;;;4996261;28;20080;-80
2021/12/07 02:46:42;;;;;;;118.10;46.05;;;;;;;;;;5005737;28;20084;-80
2021/12/07 02:49:09;;;;;;;118.32;45.50;;;;;;;;;;5010174;28;20055;-80
2021/12/07 02:51:36;;;;;;;96.25;41.83;;;;;;;;;;5003049;28;20486;-80
2021/12/07 02:54:03;;;;;;;115.38;46.17;;;;;;;;;;4996364;28;20038;-79
2021/12/07 02:56:30;;;;;;;120.85;46.83;;;;;;;;;;5016858;28;20367;-80
2021/12/07 02:59:01;;;;;;;112.50;44.63;;;;;;;;;;4993358;28;20084;-80
2021/12/07 03:01:31;;;;;;;111.10;41.88;;;;;;;;;;5003500;28;20134;-80
2021/12/07 03:04:09;;;;;;;103.30;41.55;;;;;;;;;;5010947;28;20034;-82
2021/12/07 03:07:40;;;;;;;99.38;41.10;;;;;;;;;;5024596;28;20793;-81
2021/12/07 03:26:11;;;;;;;71.90;29.67;;;;;;;;;;5009025;28;20574;-83
2021/12/07 03:28:42;;;;;;;70.45;27.23;;;;;;;;;;5023376;28;20041;-83
2021/12/07 03:31:10;;;;;;;65.30;25.90;;;;;;;;;;5023889;28;20452;-83
2021/12/07 03:33:36;;;;;;;69.18;27.38;;;;;;;;;;5007181;28;20042;-81
2021/12/07 03:36:04;;;;;;;72.72;26.25;;;;;;;;;;4656381;28;10000197;-81
2021/12/07 03:38:31;;;;;;;75.07;30.33;;;;;;;;;;5009485;28;20134;-81
2021/12/07 03:40:57;;;;;;;68.00;28.77;;;;;;;;;;5005980;28;20034;-81
2021/12/07 03:43:23;;;;;;;87.50;32.97;;;;;;;;;;5005244;28;20396;-80
2021/12/07 03:45:50;;;;;;;73.80;30.63;;;;;;;;;;5009805;28;20034;-81
2021/12/07 03:48:17;;;;;;;80.50;31.42;;;;;;;;;;5006431;28;20089;-80
2021/12/07 03:50:44;;;;;;;90.68;35.15;;;;;;;;;;5008603;28;20026;-80
2021/12/07 03:53:10;;;;;;;102.47;37.75;;;;;;;;;;5005387;28;20033;-79
2021/12/07 03:55:37;;;;;;;115.95;41.97;;;;;;;;;;5004624;28;20096;-80
2021/12/07 03:58:04;;;;;;;113.70;43.25;;;;;;;;;;5021660;28;20076;-83
2021/12/07 04:00:33;;;;;;;120.85;46.05;;;;;;;;;;5009520;28;20042;-81
2021/12/07 04:03:03;;;;;;;121.07;47.13;;;;;;;;;;5010509;28;20034;-79
2021/12/07 04:05:29;;;;;;;125.65;47.88;;;;;;;;;;5023171;28;20038;-80
2021/12/07 04:07:56;;;;;;;123.88;46.55;;;;;;;;;;5024820;28;20033;-80
2021/12/07 04:10:25;;;;;;;142.63;55.20;;;;;;;;;;5025793;28;20052;-80
2021/12/07 04:12:53;;;;;;;133.55;54.88;;;;;;;;;;5009637;28;20033;-80
2021/12/07 04:15:21;;;;;;;153.57;62.28;;;;;;;;;;5007813;28;20052;-80
2021/12/07 04:17:47;;;;;;;151.85;61.08;;;;;;;;;;5004913;28;20057;-80
2021/12/07 04:20:17;;;;;;;158.60;63.10;;;;;;;;;;5014200;28;20058;-79
2021/12/07 04:22:43;;;;;;;161.35;63.80;;;;;;;;;;5008171;28;20026;-79
2021/12/07 04:25:11;;;;;;;167.95;63.92;;;;;;;;;;5010635;28;20045;-81
2021/12/07 04:27:39;;;;;;;181.32;67.30;;;;;;;;;;5020030;28;20037;-82
2021/12/07 04:30:07;;;;;;;161.30;68.05;;;;;;;;;;5009698;28;20428;-81
2021/12/07 04:32:33;;;;;;;172.52;74.63;;;;;;;;;;5026083;28;20038;-81
2021/12/07 04:34:59;;;;;;;183.75;80.40;;;;;;;;;;5027508;28;20038;-82
2021/12/07 04:37:32;;;;;;;213.32;89.07;;;;;;;;;;5027939;28;20524;-80
2021/12/07 04:39:58;;;;;;;188.23;83.55;;;;;;;;;;5027493;28;20527;-79
2021/12/07 04:42:47;;;;;;;212.95;90.05;;;;;;;;;;5011267;28;20029;-81
2021/12/07 04:45:48;;;;;;;223.48;99.38;;;;;;;;;;5008267;28;20037;-81
2021/12/07 04:48:29;;;;;;;237.38;106.72;;;;;;;;;;5013420;28;20037;-81
2021/12/07 04:59:18;;;;;;;176.10;74.63;;;;;;;;;;5010988;28;20041;-80
2021/12/07 05:01:50;;;;;;;167.20;72.70;;;;;;;;;;5029930;28;20048;-79
2021/12/07 05:04:22;;;;;;;163.38;67.97;;;;;;;;;;5023390;28;20118;-80
2021/12/07 05:06:54;;;;;;;147.45;61.45;;;;;;;;;;5020236;28;20079;-80
2021/12/07 05:14:29;;;;;;;143.27;56.50;;;;;;;;;;5034928;28;20080;-79
2021/12/07 05:38:59;;;;;;;157.57;61.90;;;;;;;;;;5018510;28;20048;-82
2021/12/07 05:41:25;;;;;;;149.15;59.83;;;;;;;;;;5041422;28;20400;-81
2021/12/07 05:43:52;;;;;;;148.02;58.40;;;;;;;;;;5023182;28;20496;-82
2021/12/07 05:46:18;;;;;;;151.43;61.65;;;;;;;;;;5044789;28;20037;-82
2021/12/07 05:48:45;;;;;;;159.82;62.75;;;;;;;;;;5038815;28;20116;-82
2021/12/07 05:51:11;;;;;;;153.75;61.67;;;;;;;;;;5014178;28;20477;-78
2021/12/07 05:53:38;;;;;;;154.93;59.80;;;;;;;;;;5028229;28;20511;-79
2021/12/07 05:56:05;;;;;;;169.07;65.63;;;;;;;;;;5040095;28;20124;-80
2021/12/07 05:58:31;;;;;;;158.48;65.22;;;;;;;;;;5038008;28;20038;-80
2021/12/07 06:00:58;;;;;;;179.18;69.88;;;;;;;;;;5012781;28;20523;-79
2021/12/07 06:03:26;;;;;;;177.85;71.28;;;;;;;;;;5013741;28;20104;-79
2021/12/07 06:05:53;;;;;;;182.77;73.05;;;;;;;;;;5015853;28;20500;-79
2021/12/07 06:08:19;;;;;;;175.85;72.47;;;;;;;;;;5032438;28;20256;-79
2021/12/07 06:10:46;;;;;;;170.38;68.03;;;;;;;;;;5011275;28;20037;-78
2021/12/07 06:13:13;;;;;;;170.05;70.10;;;;;;;;;;5009306;28;20044;-78
2021/12/07 06:15:43;;;;;;;179.45;71.03;;;;;;;;;;5028300;28;20128;-78
2021/12/07 06:18:10;;;;;;;184.32;69.13;;;;;;;;;;5008518;28;20034;-79
2021/12/07 06:20:36;;;;;;;180.48;70.13;;;;;;;;;;5010291;28;20040;-77
2021/12/07 06:23:03;;;;;;;172.52;71.80;;;;;;;;;;5020271;28;20026;-78
2021/12/07 06:25:30;;;;;;;174.90;69.82;;;;;;;;;;5011052;28;20041;-79
2021/12/07 06:27:56;;;;;;;189.77;70.72;;;;;;;;;;5037245;28;20034;-80
2021/12/07 06:30:23;;;;;;;158.98;69.75;;;;;;;;;;5004461;28;20042;-79
2021/12/07 06:32:49;;;;;;;174.80;71.40;;;;;;;;;;5010995;28;20476;-78
2021/12/07 06:35:16;;;;;;;181.57;72.93;;;;;;;;;;5042013;28;20091;-77
2021/12/07 06:37:43;;;;;;;213.27;88.93;;;;;;;;;;5031536;28;20033;-77
2021/12/07 06:40:12;;;;;;;237.77;105.70;;;;;;;;;;5041015;28;20511;-78
2021/12/07 06:42:39;;;;;;;238.05;101.10;;;;;;;;;;5014232;28;20037;-77
2021/12/07 06:45:10;;;;;;;228.35;100.38;;;;;;;;;;5025930;28;20063;-78
2021/12/07 06:47:37;;;;;;;243.05;106.18;;;;;;;;;;5014503;28;20069;-77
2021/12/07 06:50:04;;;;;;;206.15;90.88;;;;;;;;;;5031392;28;20033;-80
2021/12/07 06:52:31;;;;;;;218.15;96.60;;;;;;;;;;5017819;28;20496;-80
2021/12/07 06:54:58;;;;;;;219.60;94.70;;;;;;;;;;5024454;28;20041;-79
2021/12/07 06:57:25;;;;;;;224.38;94.18;;;;;;;;;;5031326;28;20688;-80
2021/12/07 06:59:51;;;;;;;215.85;91.28;;;;;;;;;;5027211;28;20030;-81
2021/12/07 07:02:18;;;;;;;200.02;88.90;;;;;;;;;;5013748;28;20037;-80
2021/12/07 07:04:45;;;;;;;229.32;94.50;;;;;;;;;;5041201;28;20034;-79
2021/12/07 07:07:11;;;;;;;216.73;93.90;;;;;;;;;;5042026;28;20147;-79
2021/12/07 07:09:38;;;;;;;233.30;98.18;;;;;;;;;;5016800;28;20044;-80
2021/12/07 07:12:05;;;;;;;213.07;90.30;;;;;;;;;;5012494;28;20033;-81
2021/12/07 07:14:32;;;;;;;222.45;88.68;;;;;;;;;;5007464;28;20041;-79
2021/12/07 07:16:58;;;;;;;199.40;87.05;;;;;;;;;;5022707;28;20038;-80
2021/12/07 07:19:24;;;;;;;210.30;89.55;;;;;;;;;;5035882;28;20522;-81
2021/12/07 07:21:51;;;;;;;207.77;90.90;;;;;;;;;;5022994;28;20029;-78
2021/12/07 07:24:17;;;;;;;198.95;88.35;;;;;;;;;;5028309;28;20033;-81
2021/12/07 07:26:44;;;;;;;225.93;93.88;;;;;;;;;;5042166;28;20056;-80
2021/12/07 07:29:10;;;;;;;216.32;95.35;;;;;;;;;;5020589;28;20046;-81
2021/12/07 07:31:40;;;;;;;234.32;95.07;;;;;;;;;;5025895;28;20041;-78
2021/12/07 07:34:06;;;;;;;209.07;90.80;;;;;;;;;;5029394;28;20112;-79
2021/12/07 07:36:34;;;;;;;222.93;96.07;;;;;;;;;;5022734;28;20463;-79
2021/12/07 07:39:00;;;;;;;276.20;112.95;;;;;;;;;;5028168;28;20042;-81
2021/12/07 07:41:27;;;;;;;271.17;116.60;;;;;;;;;;5028782;28;20428;-79
2021/12/07 07:43:53;;;;;;;277.98;112.55;;;;;;;;;;5026124;28;20030;-79
2021/12/07 07:46:20;;;;;;;258.75;109.30;;;;;;;;;;5025790;28;20068;-82
2021/12/07 07:48:46;;;;;;;282.90;113.15;;;;;;;;;;5028655;28;20655;-81
2021/12/07 07:51:15;;;;;;;258.90;108.35;;;;;;;;;;5029315;28;20068;-81
2021/12/07 07:53:42;;;;;;;256.15;102.65;;;;;;;;;;5010941;28;20511;-78
2021/12/07 07:56:08;;;;;;;282.27;110.95;;;;;;;;;;5027913;28;20552;-79
2021/12/07 07:58:35;;;;;;;261.27;105.63;;;;;;;;;;5030460;28;20051;-79
2021/12/07 08:01:01;;;;;;;262.20;103.30;;;;;;;;;;5028326;28;20053;-82
2021/12/07 08:03:28;;;;;;;270.27;102.80;;;;;;;;;;5011383;28;20400;-81
2021/12/07 08:06:07;;;;;;;246.98;98.57;;;;;;;;;;5031226;28;20392;-82
2021/12/07 08:08:33;;;;;;;258.40;102.90;;;;;;;;;;5010780;28;20049;-80
2021/12/07 08:11:01;;;;;;;251.93;103.15;;;;;;;;;;5026975;28;20176;-80
2021/12/07 08:13:30;;;;;;;274.75;111.57;;;;;;;;;;5027365;28;20596;-81
2021/12/07 08:15:56;;;;;;;257.40;109.65;;;;;;;;;;5027829;28;20034;-78
2021/12/07 08:18:22;;;;;;;280.52;112.80;;;;;;;;;;5025757;28;20080;-81
2021/12/07 08:20:49;;;;;;;267.75;111.72;;;;;;;;;;5022770;28;20029;-78
2021/12/07 08:23:15;;;;;;;258.02;105.55;;;;;;;;;;5017703;28;20545;-79
2021/12/07 08:25:43;;;;;;;236.43;99.53;;;;;;;;;;5019712;28;20030;-79
2021/12/07 08:28:14;;;;;;;282.40;113.15;;;;;;;;;;5016873;28;20040;-78
2021/12/07 08:30:41;;;;;;;268.35;110.47;;;;;;;;;;5012547;28;20539;-78
2021/12/07 08:33:08;;;;;;;283.17;117.00;;;;;;;;;;5007697;28;20041;-79
2021/12/07 08:35:34;;;;;;;304.88;122.47;;;;;;;;;;5025756;28;20036;-79
2021/12/07 08:38:00;;;;;;;303.92;124.35;;;;;;;;;;5018940;28;20391;-80
2021/12/07 08:40:29;;;;;;;333.00;128.82;;;;;;;;;;5023164;28;20059;-80
2021/12/07 08:42:56;;;;;;;281.60;115.95;;;;;;;;;;5023682;28;20029;-81
2021/12/07 08:45:23;;;;;;;278.00;113.53;;;;;;;;;;5028517;28;20042;-81
2021/12/07 08:47:49;;;;;;;256.95;108.57;;;;;;;;;;5020095;28;20034;-79
2021/12/07 08:50:20;;;;;;;256.67;105.95;;;;;;;;;;5034935;28;20034;-79
2021/12/07 08:52:48;;;;;;;270.13;110.55;;;;;;;;;;5025275;28;20041;-81
2021/12/07 09:00:28;;;;;;;261.02;107.43;;;;;;;;;;5025546;28;20056;-80
2021/12/07 09:02:55;;;;;;;250.35;106.25;;;;;;;;;;5024270;28;20036;-79
2021/12/07 09:05:21;;;;;;;259.17;111.35;;;;;;;;;;5022928;28;20034;-80
2021/12/07 09:07:48;;;;;;;266.67;111.07;;;;;;;;;;5026805;28;20048;-79
2021/12/07 09:10:14;;;;;;;253.50;105.18;;;;;;;;;;5015549;28;20317;-79
2021/12/07 09:12:48;;;;;;;246.10;105.13;;;;;;;;;;5045734;28;20068;-78
2021/12/07 09:15:14;;;;;;;254.90;107.45;;;;;;;;;;5031540;28;20049;-78
2021/12/07 09:17:41;;;;;;;252.82;105.50;;;;;;;;;;5029980;28;20072;-78
2021/12/07 09:20:10;;;;;;;274.40;112.50;;;;;;;;;;5014514;28;20395;-78
2021/12/07 09:22:38;;;;;;;287.77;115.78;;;;;;;;;;5031346;28;20773;-81
2021/12/07 09:25:04;;;;;;;285.40;115.28;;;;;;;;;;5041140;28;20041;-81
2021/12/07 09:27:31;;;;;;;281.55;109.38;;;;;;;;;;5028859;28;20033;-80
2021/12/07 09:30:01;;;;;;;283.08;117.75;;;;;;;;;;5018720;28;20077;-81
2021/12/07 09:32:27;;;;;;;344.13;135.27;;;;;;;;;;5033109;28;20333;-80
2021/12/07 09:34:57;;;;;;;340.73;132.30;;;;;;;;;;5025729;28;20034;-81
2021/12/07 09:37:39;;;;;;;321.67;127.53;;;;;;;;;;5030200;28;20052;-78
2021/12/07 09:40:10;;;;;;;315.70;128.18;;;;;;;;;;5009132;28;20038;-78
2021/12/07 09:42:38;;;;;;;312.15;122.88;;;;;;;;;;5013445;28;20044;-78
2021/12/07 09:45:06;;;;;;;286.40;124.43;;;;;;;;;;5026812;28;20401;-78
2021/12/07 09:47:36;;;;;;;305.40;122.28;;;;;;;;;;5029497;28;20037;-78
2021/12/07 09:50:04;;;;;;;293.45;119.80;;;;;;;;;;5033207;28;20034;-79
2021/12/07 09:52:33;;;;;;;306.73;121.60;;;;;;;;;;5035013;28;20084;-80
2021/12/07 09:54:59;;;;;;;292.00;118.53;;;;;;;;;;5033730;28;20038;-78
2021/12/07 09:57:26;;;;;;;298.38;118.25;;;;;;;;;;5033512;28;20030;-78
2021/12/07 09:59:52;;;;;;;302.77;123.20;;;;;;;;;;5037331;28;20489;-79
2021/12/07 10:02:20;;;;;;;319.27;127.78;;;;;;;;;;5031137;28;20061;-80
2021/12/07 10:04:46;;;;;;;296.80;125.85;;;;;;;;;;5006814;28;20393;-80
2021/12/07 10:07:30;;;;;;;297.75;118.70;;;;;;;;;;5029996;28;20026;-80
2021/12/07 10:09:59;;;;;;;299.60;118.65;;;;;;;;;;5039135;28;21739;-80
2021/12/07 10:12:27;;;;;;;289.08;120.82;;;;;;;;;;5027047;28;20662;-78
2021/12/07 10:14:55;;;;;;;287.15;114.18;;;;;;;;;;5027040;28;20034;-80
2021/12/07 10:17:22;;;;;;;272.35;110.53;;;;;;;;;;5033573;28;20037;-78
2021/12/07 10:19:49;;;;;;;263.23;112.90;;;;;;;;;;5018518;28;20029;-80
2021/12/07 10:22:28;;;;;;;260.88;107.32;;;;;;;;;;5035017;28;20033;-78
2021/12/07 10:24:55;;;;;;;259.65;107.45;;;;;;;;;;5036974;28;20032;-80
2021/12/07 10:27:40;;;;;;;263.60;104.10;;;;;;;;;;5037042;28;20026;-79
2021/12/07 10:30:08;;;;;;;225.45;92.35;;;;;;;;;;5034149;28;20120;-79
2021/12/07 10:32:37;;;;;;;229.05;92.72;;;;;;;;;;4687170;28;10000222;-79
2021/12/07 10:35:04;;;;;;;229.02;89.57;;;;;;;;;;5018840;28;20057;-79
2021/12/07 10:37:31;;;;;;;207.73;84.63;;;;;;;;;;5050183;28;20029;-83
2021/12/07 10:39:57;;;;;;;211.43;83.97;;;;;;;;;;5050343;28;20048;-84
2021/12/07 10:42:26;;;;;;;200.75;84.28;;;;;;;;;;5050121;28;20029;-83
2021/12/07 10:44:52;;;;;;;202.48;84.28;;;;;;;;;;5050254;28;20549;-84
2021/12/07 10:47:20;;;;;;;200.77;83.05;;;;;;;;;;5050221;28;20030;-83
2021/12/07 10:49:49;;;;;;;187.20;79.28;;;;;;;;;;5045330;28;20036;-83
2021/12/07 10:52:18;;;;;;;243.35;97.97;;;;;;;;;;5027509;28;20026;-81
2021/12/07 10:54:55;;;;;;;296.83;129.13;;;;;;;;;;5017397;28;20030;-83
2021/12/07 10:57:38;;;;;;;320.52;134.13;;;;;;;;;;5004548;28;20034;-80
2021/12/07 11:00:08;;;;;;;306.50;134.93;;;;;;;;;;5031210;28;20035;-80
2021/12/07 11:02:36;;;;;;;358.73;151.63;;;;;;;;;;5007007;28;20038;-78
2021/12/07 11:05:05;;;;;;;356.83;151.70;;;;;;;;;;4999338;28;20023;-78
2021/12/07 11:07:32;;;;;;;354.00;158.93;;;;;;;;;;4977369;28;20039;-82
2021/12/07 11:10:22;;;;;;;367.92;159.23;;;;;;;;;;4993676;28;20141;-80
2021/12/07 11:15:36;;;;;;;344.15;157.73;;;;;;;;;;5015257;28;20025;-79
2021/12/07 11:18:04;;;;;;;359.65;158.77;;;;;;;;;;5001651;28;20050;-79
2021/12/07 11:20:32;;;;;;;377.15;170.25;;;;;;;;;;4991261;28;20478;-79
2021/12/07 11:23:01;;;;;;;378.67;172.07;;;;;;;;;;5000461;28;20504;-79
2021/12/07 11:31:11;;;;;;;384.63;165.85;;;;;;;;;;5013913;28;20148;-80
2021/12/07 11:33:38;;;;;;;365.23;155.02;;;;;;;;;;5000690;28;20234;-78
2021/12/07 11:36:16;;;;;;;367.52;157.43;;;;;;;;;;4997985;28;20445;-79
2021/12/07 11:39:08;;;;;;;345.38;152.07;;;;;;;;;;4995310;28;20144;-80
2021/12/07 11:41:34;;;;;;;383.77;160.43;;;;;;;;;;5007749;28;20511;-81
2021/12/07 11:44:04;;;;;;;337.45;140.07;;;;;;;;;;5013779;28;20026;-80
2021/12/07 11:46:31;;;;;;;370.48;161.40;;;;;;;;;;4996498;28;20129;-79
2021/12/07 11:49:19;;;;;;;379.85;157.40;;;;;;;;;;4996650;28;20558;-79
2021/12/07 11:51:48;;;;;;;393.10;165.02;;;;;;;;;;4996076;28;20044;-81
2021/12/07 11:54:24;;;;;;;353.73;155.93;;;;;;;;;;4995971;28;20421;-80
2021/12/07 11:56:51;;;;;;;400.23;169.10;;;;;;;;;;5010974;28;20493;-80
2021/12/07 11:59:20;;;;;;;372.92;159.60;;;;;;;;;;5012257;28;20049;-79
2021/12/07 12:01:48;;;;;;;362.23;154.07;;;;;;;;;;5001106;28;20405;-79
2021/12/07 12:04:17;;;;;;;351.15;147.57;;;;;;;;;;5022609;28;20041;-79
2021/12/07 12:06:46;;;;;;;346.45;146.57;;;;;;;;;;5005445;28;20472;-79
2021/12/07 12:09:13;;;;;;;337.90;146.43;;;;;;;;;;5011780;28;20445;-79
2021/12/07 12:11:58;;;;;;;323.00;136.75;;;;;;;;;;5011989;28;20129;-79
2021/12/07 12:14:55;;;;;;;333.38;143.13;;;;;;;;;;5006296;28;20403;-79
2021/12/07 12:17:40;;;;;;;305.90;129.50;;;;;;;;;;4914179;29;20456;-79
2021/12/07 12:20:13;;;;;;;311.42;129.07;;;;;;;;;;4914322;29;20407;-79
2021/12/07 12:22:41;;;;;;;328.92;132.23;;;;;;;;;;5009395;28;20033;-78
2021/12/07 12:25:12;;;;;;;278.17;116.32;;;;;;;;;;5013207;28;20026;-78
2021/12/07 12:27:39;;;;;;;264.77;105.85;;;;;;;;;;5011649;28;20041;-78
2021/12/07 12:30:17;;;;;;;242.68;103.30;;;;;;;;;;5022302;28;20026;-80
2021/12/07 12:32:44;;;;;;;229.80;92.85;;;;;;;;;;5003471;28;20044;-81
2021/12/07 12:35:11;;;;;;;220.32;89.25;;;;;;;;;;5012533;28;20061;-80
2021/12/07 12:37:39;;;;;;;257.02;103.55;;;;;;;;;;5012714;28;20568;-79
2021/12/07 12:40:07;;;;;;;206.02;84.80;;;;;;;;;;5011453;28;20092;-78
2021/12/07 12:42:44;;;;;;;210.90;85.50;;;;;;;;;;4988126;28;20061;-79
2021/12/07 12:45:23;;;;;;;197.00;84.07;;;;;;;;;;5028083;28;20034;-79
2021/12/07 12:47:57;;;;;;;217.98;86.05;;;;;;;;;;5011460;28;20440;-79
2021/12/07 12:50:32;;;;;;;208.52;83.07;;;;;;;;;;5019997;28;20038;-79
2021/12/07 12:53:04;;;;;;;196.90;80.22;;;;;;;;;;5012941;28;20475;-81
2021/12/07 12:55:33;;;;;;;165.63;72.88;;;;;;;;;;5028076;28;20034;-81
2021/12/07 12:58:00;;;;;;;181.32;73.45;;;;;;;;;;5002281;28;20124;-82
2021/12/07 13:00:46;;;;;;;180.90;69.93;;;;;;;;;;5021728;28;20041;-81
2021/12/07 13:03:13;;;;;;;176.32;74.38;;;;;;;;;;5037504;28;20034;-82
2021/12/07 13:05:43;;;;;;;178.52;72.68;;;;;;;;;;5039335;28;20034;-81
2021/12/07 13:08:16;;;;;;;190.63;74.70;;;;;;;;;;5040782;28;20040;-81
2021/12/07 13:10:56;;;;;;;192.48;76.28;;;;;;;;;;5025114;28;20045;-82
2021/12/07 13:13:29;;;;;;;180.05;74.85;;;;;;;;;;5031242;28;20037;-81
2021/12/07 13:15:58;;;;;;;194.02;76.38;;;;;;;;;;5011969;28;20502;-81
2021/12/07 13:18:32;;;;;;;173.68;72.28;;;;;;;;;;5038761;28;20088;-81
2021/12/07 13:20:58;;;;;;;157.32;66.10;;;;;;;;;;5034280;28;20491;-81
2021/12/07 13:23:31;;;;;;;151.50;62.53;;;;;;;;;;5034089;28;20033;-81
2021/12/07 13:25:58;;;;;;;161.57;64.93;;;;;;;;;;5018088;28;20103;-81
2021/12/07 13:28:35;;;;;;;155.60;64.70;;;;;;;;;;5032887;28;20558;-81
2021/12/07 13:31:21;;;;;;;147.27;59.08;;;;;;;;;;5033308;28;20048;-81
2021/12/07 13:33:50;;;;;;;110.22;45.83;;;;;;;;;;5037789;28;20361;-82
2021/12/07 13:36:36;;;;;;;138.90;54.53;;;;;;;;;;5033547;28;20038;-82
2021/12/07 13:39:31;;;;;;;144.40;58.70;;;;;;;;;;5040379;28;20680;-81
2021/12/07 13:42:05;;;;;;;121.60;49.33;;;;;;;;;;5014862;28;20033;-81
2021/12/07 13:44:46;;;;;;;134.77;56.05;;;;;;;;;;5035530;28;20040;-81
2021/12/07 13:47:14;;;;;;;135.18;56.22;;;;;;;;;;5042247;28;20039;-81
2021/12/07 13:49:42;;;;;;;123.22;50.60;;;;;;;;;;5036599;28;20034;-81
2021/12/07 13:52:12;;;;;;;117.50;50.83;;;;;;;;;;3991081;28;10000139;-82
2021/12/07 13:54:43;;;;;;;135.45;52.95;;;;;;;;;;5044459;28;20082;-81
2021/12/07 13:57:15;;;;;;;131.65;55.10;;;;;;;;;;5017042;28;20092;-81
2021/12/07 13:59:42;;;;;;;153.20;67.28;;;;;;;;;;5016927;28;20037;-80
2021/12/07 14:02:08;;;;;;;162.00;70.78;;;;;;;;;;5015425;28;20069;-81
2021/12/07 14:04:36;;;;;;;145.30;61.10;;;;;;;;;;5047188;28;20669;-81
2021/12/07 14:07:02;;;;;;;141.23;61.40;;;;;;;;;;5028113;28;20029;-80
2021/12/07 14:09:34;;;;;;;148.80;63.92;;;;;;;;;;5017556;28;20522;-82
2021/12/07 14:12:01;;;;;;;142.75;64.68;;;;;;;;;;5012728;28;20067;-81
2021/12/07 14:14:28;;;;;;;150.77;62.45;;;;;;;;;;5023046;28;20029;-81
2021/12/07 14:16:55;;;;;;;168.63;64.82;;;;;;;;;;5044116;28;20030;-81
2021/12/07 14:19:23;;;;;;;132.02;59.50;;;;;;;;;;5015567;28;20083;-81
2021/12/07 14:21:50;;;;;;;127.13;58.15;;;;;;;;;;5011274;28;20029;-81
2021/12/07 14:24:22;;;;;;;126.93;55.83;;;;;;;;;;5033590;28;20473;-80
2021/12/07 14:26:49;;;;;;;135.40;57.35;;;;;;;;;;5016751;28;20034;-80
2021/12/07 14:29:20;;;;;;;141.75;61.17;;;;;;;;;;5039126;28;20041;-80
2021/12/07 14:31:46;;;;;;;126.65;58.65;;;;;;;;;;5016575;28;20033;-82
2021/12/07 14:34:20;;;;;;;127.30;51.42;;;;;;;;;;5032320;28;20036;-82
2021/12/07 14:36:50;;;;;;;117.43;49.75;;;;;;;;;;5040435;28;20030;-82
2021/12/07 14:39:18;;;;;;;93.53;42.22;;;;;;;;;;5028727;28;20037;-82
2021/12/07 14:42:04;;;;;;;73.03;33.42;;;;;;;;;;5028923;28;20049;-82
2021/12/07 14:44:32;;;;;;;72.00;33.42;;;;;;;;;;5034655;28;20034;-82
2021/12/07 14:47:07;;;;;;;78.10;34.63;;;;;;;;;;5034851;28;20037;-82
2021/12/07 14:49:35;;;;;;;84.10;36.03;;;;;;;;;;5033458;28;20065;-82
2021/12/07 14:52:08;;;;;;;89.82;40.33;;;;;;;;;;5040002;28;20044;-82
2021/12/07 14:54:35;;;;;;;108.05;45.30;;;;;;;;;;5044755;28;20090;-82
2021/12/07 14:57:01;;;;;;;86.95;41.17;;;;;;;;;;5136794;23;20062;-82
2021/12/07 14:59:28;;;;;;;93.50;40.15;;;;;;;;;;5030985;28;20068;-81
2021/12/07 15:01:57;;;;;;;81.15;35.90;;;;;;;;;;5020323;28;20407;-81
2021/12/07 15:04:25;;;;;;;76.22;32.17;;;;;;;;;;5037463;28;20037;-82
2021/12/07 15:06:59;;;;;;;56.63;25.15;;;;;;;;;;5030962;28;20111;-82
2021/12/07 15:09:27;;;;;;;51.67;21.08;;;;;;;;;;5029553;28;20538;-81
2021/12/07 15:11:54;;;;;;;44.80;19.75;;;;;;;;;;5012396;28;20048;-82
2021/12/07 15:14:24;;;;;;;49.85;18.27;;;;;;;;;;5028142;28;20387;-86
2021/12/07 15:16:53;;;;;;;39.15;17.33;;;;;;;;;;5026546;28;20195;-86
2021/12/07 15:19:20;;;;;;;36.08;13.63;;;;;;;;;;5031505;28;20037;-87
2021/12/07 15:21:54;;;;;;;37.35;14.48;;;;;;;;;;4682389;28;10000280;-86
2021/12/07 15:24:25;;;;;;;36.83;14.55;;;;;;;;;;5030735;28;20120;-86
2021/12/07 15:26:52;;;;;;;41.22;15.00;;;;;;;;;;5029691;28;20746;-86
2021/12/07 15:29:22;;;;;;;34.95;14.85;;;;;;;;;;5011545;28;20041;-85
2021/12/07 15:31:53;;;;;;;43.95;14.45;;;;;;;;;;5011013;28;20033;-84
2021/12/07 15:34:20;;;;;;;34.53;13.50;;;;;;;;;;5015448;28;20037;-83
2021/12/07 15:36:48;;;;;;;36.80;12.73;;;;;;;;;;5013600;28;20037;-84
2021/12/07 15:39:22;;;;;;;32.58;12.35;;;;;;;;;;5013192;28;20049;-83
2021/12/07 15:41:53;;;;;;;43.50;14.93;;;;;;;;;;5007539;28;20116;-83
2021/12/07 15:44:25;;;;;;;26.02;11.63;;;;;;;;;;5013341;28;20483;-83
2021/12/07 15:46:54;;;;;;;24.50;11.25;;;;;;;;;;5029102;28;20037;-84
2021/12/07 15:49:42;;;;;;;18.55;8.35;;;;;;;;;;5016232;28;20041;-84
2021/12/07 15:52:10;;;;;;;28.15;8.52;;;;;;;;;;5028137;28;20491;-83
2021/12/07 15:54:37;;;;;;;21.40;7.35;;;;;;;;;;5008635;28;20124;-84
2021/12/07 15:57:11;;;;;;;29.95;10.90;;;;;;;;;;5023014;28;20483;-83
2021/12/07 15:59:54;;;;;;;21.17;8.02;;;;;;;;;;5028464;28;20044;-84
2021/12/07 16:02:22;;;;;;;13.63;5.68;;;;;;;;;;5028888;28;20099;-83
2021/12/07 16:04:48;;;;;;;22.00;6.60;;;;;;;;;;5030900;28;20053;-85
2021/12/07 16:07:20;;;;;;;23.70;7.95;;;;;;;;;;5030745;28;20037;-84